Главная страница
METAR-TAF:

METAR-TAF

Аэропорты :

Meierwik

Глюксбург, Германия

широта: 54-50N, долгота: 009-30E, высота над уровнем моря: 27 м

Текущие метеонаблюдения

Эта сводка был подготовлена 37 минут назад, в 00:20 UTC
Ветер 3 Узел от восточный
Температура 3°C
Влажность 81%
Давление 1028 hPa

METAR: ETGG 210020Z AUTO 08003KT //// // ////// 03/00 Q1028 ///

Время: 02:57 (00:57 UTC)


TAF: отсутствует

Метеонаблюдения и прогнозы для более 4000 аэропортов (сводки METAR и TAF).

Имеющиеся станции представлены на карте желтыми и красными точками.

Чтобы увидеть название станции, наведите на нее мышь.

Затем щелкните, чтобы увидеть метеонаблюдения и метеопрогнозы.

Управление картой: чтобы увеличить масштаб, щелкните зеленые кнопки с черным крестиком; чтобы уменьшить масштаб, щелкните зеленую кнопку с тире; для просмотра соседних карт щелкайте зеленые стрелки.


METAR-TAF: